CheckWX is a tool to help pilots better visualize weather data.  It is not intended as a substitute for an official pre-flight weather briefing.

17:27:28 UTC

SBMD METAR
Monte Dourado Airport
Almeirim, Brazil
Current

2 hours ago

SBMD 231500Z 13002KT 9999 BKN020 29/25 Q1014
Observed
May-23 @ 15:00 UTC
Wind
  • 130° at 2 KTS
Visibility
10,000+ meters
Flight Rules
MVFR
Cloud Levels
  • Broken at 2,000' AGL
Temperature
29°C / 84°F
Dewpoint
25°C / 77°F
Heat Index
34°C / 94°F
Humidity
79%
Altimeter
29.94" Hg
Pressure
1013.92 hPa
Previous

3 hours ago

SBMD 231400Z 14004KT 9999 SCT015 BKN017 29/25 Q1015
Observed
May-23 @ 14:00 UTC
Wind
  • 140° at 4 KTS
Visibility
10,000+ meters
Flight Rules
MVFR
Cloud Levels
  • Scattered at 1,500' AGL
  • Broken at 1,700' AGL
Temperature
29°C / 84°F
Dewpoint
25°C / 77°F
Heat Index
34°C / 94°F
Humidity
79%
Altimeter
29.97" Hg
Pressure
1014.92 hPa
Previous

4 hours ago

SBMD 231300Z 17002KT 9999 BKN015 26/24 Q1015
Observed
May-23 @ 13:00 UTC
Wind
  • 170° at 2 KTS
Visibility
10,000+ meters
Flight Rules
MVFR
Cloud Levels
  • Broken at 1,500' AGL
Temperature
26°C / 79°F
Dewpoint
24°C / 75°F
Humidity
89%
Altimeter
29.97" Hg
Pressure
1014.92 hPa